This is the latest recevied weather packets stored in our database for station/object N0HOT. If no packets are shown the sender has not sent any weather packets the latest 10 day(s).
| Time | Temp. | Humidity | Pressure | Rain* | Wind** | Luminosity | Snow |
|---|---|---|---|---|---|---|---|
| 1777299250 | 14.44° C | 70% | 1003.8 hPa | 0 mm | - | 49 W/m² | - |
| 1777298947 | 14.44° C | 69% | 1003.8 hPa | 0 mm | - | 50 W/m² | - |
| 1777298644 | 13.89° C | 69% | 1003.8 hPa | 0 mm | - | 53 W/m² | - |
| 1777298340 | 13.89° C | 70% | 1003.8 hPa | 0 mm | - | 63 W/m² | - |
| 1777298036 | 13.89° C | 70% | 1003.5 hPa | 0 mm | - | 76 W/m² | - |
| 1777297731 | 13.89° C | 70% | 1003.8 hPa | 0 mm | - | 53 W/m² | - |
| 1777297430 | 13.89° C | 71% | 1004.2 hPa | 0 mm | - | 31 W/m² | - |
| 1777297126 | 13.89° C | 71% | 1004.2 hPa | 0 mm | - | 31 W/m² | - |
| 1777296824 | 13.89° C | 70% | 1004.2 hPa | 0 mm | - | 31 W/m² | - |
| 1777296519 | 13.89° C | 71% | 1004.2 hPa | 0 mm | - | 38 W/m² | - |
| 1777296215 | 13.89° C | 71% | 1004.5 hPa | 0 mm | - | 32 W/m² | - |
| 1777295912 | 13.89° C | 71% | 1004.5 hPa | 0 mm | - | 27 W/m² | - |
| 1777295609 | 13.89° C | 71% | 1004.2 hPa | 0 mm | - | 41 W/m² | - |
| 1777295306 | 13.33° C | 70% | 1004.8 hPa | 0 mm | - | 34 W/m² | - |
| 1777295004 | 13.33° C | 72% | 1004.8 hPa | 0 mm | - | 18 W/m² | - |
| 1777294701 | 13.33° C | 72% | 1005.3 hPa | 0 mm | - | 16 W/m² | - |
| 1777294396 | 13.33° C | 72% | 1005.3 hPa | 0 mm | - | 12 W/m² | - |
| 1777294093 | 13.33° C | 72% | 1005.3 hPa | 0 mm | - | 10 W/m² | - |
| 1777293790 | 13.33° C | 72% | 1005.3 hPa | 0 mm | - | 15 W/m² | - |
| 1777293490 | 13.33° C | 71% | 1005.6 hPa | 0 mm | - | 17 W/m² | - |
| 1777293186 | 13.33° C | 73% | 1005.3 hPa | 0 mm | - | 16 W/m² | - |
| 1777292885 | 13.33° C | 72% | 1005.3 hPa | 0 mm | - | 17 W/m² | - |
| 1777292581 | 13.33° C | 72% | 1005.3 hPa | 0 mm | - | 21 W/m² | - |
| 1777292277 | 13.33° C | 73% | 1005.3 hPa | 0 mm | - | 29 W/m² | - |
| 1777291974 | 13.33° C | 72% | 1005.3 hPa | 0 mm | - | 27 W/m² | - |
* Rain latest hour (hover to see other rain measurements)
** Current wind speed in m/s (hover to see current wind gust speed)